sensor_id;sensor_type;location;lat;lon;timestamp;temperature;humidity
45983;DHT22;31711;47.158;7.346;2024-01-15T00:00:45;1.70;99.90
45983;DHT22;31711;47.158;7.346;2024-01-15T00:03:11;1.80;99.90
45983;DHT22;31711;47.158;7.346;2024-01-15T00:05:37;1.70;99.90
45983;DHT22;31711;47.158;7.346;2024-01-15T00:08:04;1.70;99.90
45983;DHT22;31711;47.158;7.346;2024-01-15T00:10:30;1.80;99.90
45983;DHT22;31711;47.158;7.346;2024-01-15T00:12:56;1.80;99.90
45983;DHT22;31711;47.158;7.346;2024-01-15T00:15:22;2.00;99.90
45983;DHT22;31711;47.158;7.346;2024-01-15T00:17:48;2.20;99.90
45983;DHT22;31711;47.158;7.346;2024-01-15T00:20:14;2.10;99.90
45983;DHT22;31711;47.158;7.346;2024-01-15T00:22:40;1.90;99.90
45983;DHT22;31711;47.158;7.346;2024-01-15T00:25:06;1.70;99.90
45983;DHT22;31711;47.158;7.346;2024-01-15T00:27:32;1.50;99.90
45983;DHT22;31711;47.158;7.346;2024-01-15T00:29:58;1.60;99.90
45983;DHT22;31711;47.158;7.346;2024-01-15T00:32:24;1.70;99.90
45983;DHT22;31711;47.158;7.346;2024-01-15T00:34:50;1.60;99.90
45983;DHT22;31711;47.158;7.346;2024-01-15T00:37:16;1.70;99.90
45983;DHT22;31711;47.158;7.346;2024-01-15T00:39:42;1.70;99.90
45983;DHT22;31711;47.158;7.346;2024-01-15T00:42:08;1.70;99.90
45983;DHT22;31711;47.158;7.346;2024-01-15T00:44:34;1.60;99.90
45983;DHT22;31711;47.158;7.346;2024-01-15T00:47:00;1.60;99.90
45983;DHT22;31711;47.158;7.346;2024-01-15T00:49:27;1.70;99.90
45983;DHT22;31711;47.158;7.346;2024-01-15T00:51:53;1.70;99.90
45983;DHT22;31711;47.158;7.346;2024-01-15T00:54:19;1.70;99.90
45983;DHT22;31711;47.158;7.346;2024-01-15T00:56:45;1.70;99.90
45983;DHT22;31711;47.158;7.346;2024-01-15T00:59:11;1.70;99.90
45983;DHT22;31711;47.158;7.346;2024-01-15T01:01:41;1.80;99.90
45983;DHT22;31711;47.158;7.346;2024-01-15T01:04:09;1.70;99.90
45983;DHT22;31711;47.158;7.346;2024-01-15T01:06:35;1.80;99.90
45983;DHT22;31711;47.158;7.346;2024-01-15T01:09:01;1.80;99.90
45983;DHT22;31711;47.158;7.346;2024-01-15T01:11:27;1.80;99.90
45983;DHT22;31711;47.158;7.346;2024-01-15T01:13:53;1.80;99.90
45983;DHT22;31711;47.158;7.346;2024-01-15T01:16:19;1.80;99.90
45983;DHT22;31711;47.158;7.346;2024-01-15T01:18:45;1.80;99.90
45983;DHT22;31711;47.158;7.346;2024-01-15T01:21:11;1.90;99.90
45983;DHT22;31711;47.158;7.346;2024-01-15T01:23:37;1.90;99.90
45983;DHT22;31711;47.158;7.346;2024-01-15T01:26:03;2.00;99.90
45983;DHT22;31711;47.158;7.346;2024-01-15T01:28:29;2.10;99.90
45983;DHT22;31711;47.158;7.346;2024-01-15T01:30:55;2.00;99.90
45983;DHT22;31711;47.158;7.346;2024-01-15T01:33:21;2.00;99.90
45983;DHT22;31711;47.158;7.346;2024-01-15T01:35:47;2.00;99.90
45983;DHT22;31711;47.158;7.346;2024-01-15T01:38:13;2.00;99.90
45983;DHT22;31711;47.158;7.346;2024-01-15T01:40:39;2.00;99.90
45983;DHT22;31711;47.158;7.346;2024-01-15T01:43:05;2.00;99.90
45983;DHT22;31711;47.158;7.346;2024-01-15T01:45:31;2.00;99.90
45983;DHT22;31711;47.158;7.346;2024-01-15T01:47:57;2.00;99.90
45983;DHT22;31711;47.158;7.346;2024-01-15T01:50:24;2.00;99.90
45983;DHT22;31711;47.158;7.346;2024-01-15T01:52:50;2.00;99.90
45983;DHT22;31711;47.158;7.346;2024-01-15T01:55:16;2.00;99.90
45983;DHT22;31711;47.158;7.346;2024-01-15T01:57:42;2.00;99.90
45983;DHT22;31711;47.158;7.346;2024-01-15T02:00:09;2.00;99.90
45983;DHT22;31711;47.158;7.346;2024-01-15T02:02:35;2.00;99.90
45983;DHT22;31711;47.158;7.346;2024-01-15T02:05:03;1.90;99.90
45983;DHT22;31711;47.158;7.346;2024-01-15T02:07:31;2.00;99.90
45983;DHT22;31711;47.158;7.346;2024-01-15T02:09:57;2.00;99.90
45983;DHT22;31711;47.158;7.346;2024-01-15T02:12:23;2.00;99.90
45983;DHT22;31711;47.158;7.346;2024-01-15T02:14:49;2.00;99.90
45983;DHT22;31711;47.158;7.346;2024-01-15T02:17:15;2.10;99.90
45983;DHT22;31711;47.158;7.346;2024-01-15T02:19:41;2.10;99.90
45983;DHT22;31711;47.158;7.346;2024-01-15T02:22:07;2.20;99.90
45983;DHT22;31711;47.158;7.346;2024-01-15T02:24:33;2.20;99.90
45983;DHT22;31711;47.158;7.346;2024-01-15T02:26:59;2.20;99.90
45983;DHT22;31711;47.158;7.346;2024-01-15T02:29:26;2.20;99.90
45983;DHT22;31711;47.158;7.346;2024-01-15T02:31:52;2.20;99.90
45983;DHT22;31711;47.158;7.346;2024-01-15T02:34:18;2.10;99.90
45983;DHT22;31711;47.158;7.346;2024-01-15T02:36:43;2.10;99.90
45983;DHT22;31711;47.158;7.346;2024-01-15T02:39:09;2.10;99.90
45983;DHT22;31711;47.158;7.346;2024-01-15T02:41:35;1.90;99.90
45983;DHT22;31711;47.158;7.346;2024-01-15T02:44:01;2.00;99.90
45983;DHT22;31711;47.158;7.346;2024-01-15T02:46:27;2.00;99.90
45983;DHT22;31711;47.158;7.346;2024-01-15T02:48:53;2.00;99.90
45983;DHT22;31711;47.158;7.346;2024-01-15T02:51:19;2.00;99.90
45983;DHT22;31711;47.158;7.346;2024-01-15T02:53:45;2.00;99.90
45983;DHT22;31711;47.158;7.346;2024-01-15T02:56:11;2.10;99.90
45983;DHT22;31711;47.158;7.346;2024-01-15T02:58:37;2.10;99.90
45983;DHT22;31711;47.158;7.346;2024-01-15T03:01:03;2.10;99.90
45983;DHT22;31711;47.158;7.346;2024-01-15T03:03:29;2.10;99.90
45983;DHT22;31711;47.158;7.346;2024-01-15T03:05:55;2.10;99.90
45983;DHT22;31711;47.158;7.346;2024-01-15T03:08:21;2.20;99.90
45983;DHT22;31711;47.158;7.346;2024-01-15T03:10:48;2.20;99.90
45983;DHT22;31711;47.158;7.346;2024-01-15T03:13:14;2.20;99.90
45983;DHT22;31711;47.158;7.346;2024-01-15T03:15:40;2.10;99.90
45983;DHT22;31711;47.158;7.346;2024-01-15T03:18:06;2.10;99.90
45983;DHT22;31711;47.158;7.346;2024-01-15T03:20:32;2.20;99.90
45983;DHT22;31711;47.158;7.346;2024-01-15T03:22:58;2.20;99.90
45983;DHT22;31711;47.158;7.346;2024-01-15T03:25:24;2.20;99.90
45983;DHT22;31711;47.158;7.346;2024-01-15T03:27:50;2.20;99.90
45983;DHT22;31711;47.158;7.346;2024-01-15T03:30:16;2.10;99.90
45983;DHT22;31711;47.158;7.346;2024-01-15T03:32:42;2.10;99.90
45983;DHT22;31711;47.158;7.346;2024-01-15T03:35:08;2.20;99.90
45983;DHT22;31711;47.158;7.346;2024-01-15T03:37:34;2.10;99.90
45983;DHT22;31711;47.158;7.346;2024-01-15T03:40:01;2.10;99.90
45983;DHT22;31711;47.158;7.346;2024-01-15T03:42:28;2.10;99.90
45983;DHT22;31711;47.158;7.346;2024-01-15T03:44:54;2.20;99.90
45983;DHT22;31711;47.158;7.346;2024-01-15T03:47:20;2.20;99.90
45983;DHT22;31711;47.158;7.346;2024-01-15T03:49:46;2.20;99.90
45983;DHT22;31711;47.158;7.346;2024-01-15T03:52:12;2.20;99.90
45983;DHT22;31711;47.158;7.346;2024-01-15T03:54:37;2.20;99.90
45983;DHT22;31711;47.158;7.346;2024-01-15T03:57:04;2.20;99.90
45983;DHT22;31711;47.158;7.346;2024-01-15T03:59:30;2.30;99.90
45983;DHT22;31711;47.158;7.346;2024-01-15T04:01:56;2.30;99.90
45983;DHT22;31711;47.158;7.346;2024-01-15T04:04:22;2.20;99.90
45983;DHT22;31711;47.158;7.346;2024-01-15T04:06:48;2.20;99.90
45983;DHT22;31711;47.158;7.346;2024-01-15T04:09:14;2.30;99.90
45983;DHT22;31711;47.158;7.346;2024-01-15T04:11:40;2.30;99.90
45983;DHT22;31711;47.158;7.346;2024-01-15T04:14:06;2.20;99.90
45983;DHT22;31711;47.158;7.346;2024-01-15T04:16:32;2.30;99.90
45983;DHT22;31711;47.158;7.346;2024-01-15T04:18:58;2.30;99.90
45983;DHT22;31711;47.158;7.346;2024-01-15T04:21:24;2.20;99.90
45983;DHT22;31711;47.158;7.346;2024-01-15T04:23:50;2.20;99.90
45983;DHT22;31711;47.158;7.346;2024-01-15T04:26:16;2.10;99.90
45983;DHT22;31711;47.158;7.346;2024-01-15T04:28:42;2.20;99.90
45983;DHT22;31711;47.158;7.346;2024-01-15T04:31:08;2.20;99.90
45983;DHT22;31711;47.158;7.346;2024-01-15T04:33:34;2.10;99.90
45983;DHT22;31711;47.158;7.346;2024-01-15T04:36:04;2.20;99.90
45983;DHT22;31711;47.158;7.346;2024-01-15T04:38:31;2.20;99.90
45983;DHT22;31711;47.158;7.346;2024-01-15T04:40:58;2.20;99.90
45983;DHT22;31711;47.158;7.346;2024-01-15T04:43:24;2.30;99.90
45983;DHT22;31711;47.158;7.346;2024-01-15T04:45:50;2.30;99.90
45983;DHT22;31711;47.158;7.346;2024-01-15T04:48:16;2.30;99.90
45983;DHT22;31711;47.158;7.346;2024-01-15T04:50:42;2.40;99.90
45983;DHT22;31711;47.158;7.346;2024-01-15T04:53:08;2.40;99.90
45983;DHT22;31711;47.158;7.346;2024-01-15T04:55:34;2.40;99.90
45983;DHT22;31711;47.158;7.346;2024-01-15T04:57:59;2.40;99.90
45983;DHT22;31711;47.158;7.346;2024-01-15T05:00:25;2.40;99.90
45983;DHT22;31711;47.158;7.346;2024-01-15T05:02:51;2.50;99.90
45983;DHT22;31711;47.158;7.346;2024-01-15T05:05:17;2.40;99.90
45983;DHT22;31711;47.158;7.346;2024-01-15T05:07:43;2.40;99.90
45983;DHT22;31711;47.158;7.346;2024-01-15T05:10:09;2.40;99.90
45983;DHT22;31711;47.158;7.346;2024-01-15T05:12:35;2.40;99.90
45983;DHT22;31711;47.158;7.346;2024-01-15T05:15:03;2.40;99.90
45983;DHT22;31711;47.158;7.346;2024-01-15T05:17:29;2.40;99.90
45983;DHT22;31711;47.158;7.346;2024-01-15T05:19:55;2.40;99.90
45983;DHT22;31711;47.158;7.346;2024-01-15T05:22:21;2.40;99.90
45983;DHT22;31711;47.158;7.346;2024-01-15T05:24:50;2.50;99.90
45983;DHT22;31711;47.158;7.346;2024-01-15T05:27:16;2.60;99.90
45983;DHT22;31711;47.158;7.346;2024-01-15T05:29:42;2.60;99.90
45983;DHT22;31711;47.158;7.346;2024-01-15T05:32:08;2.50;99.90
45983;DHT22;31711;47.158;7.346;2024-01-15T05:34:34;2.40;99.90
45983;DHT22;31711;47.158;7.346;2024-01-15T05:37:00;2.40;99.90
45983;DHT22;31711;47.158;7.346;2024-01-15T05:39:26;2.40;99.90
45983;DHT22;31711;47.158;7.346;2024-01-15T05:41:52;2.30;99.90
45983;DHT22;31711;47.158;7.346;2024-01-15T05:44:18;2.30;99.90
45983;DHT22;31711;47.158;7.346;2024-01-15T05:46:44;2.20;99.90
45983;DHT22;31711;47.158;7.346;2024-01-15T05:49:09;2.30;99.90
45983;DHT22;31711;47.158;7.346;2024-01-15T05:51:35;2.30;99.90
45983;DHT22;31711;47.158;7.346;2024-01-15T05:54:01;2.40;99.90
45983;DHT22;31711;47.158;7.346;2024-01-15T05:56:27;2.40;99.90
45983;DHT22;31711;47.158;7.346;2024-01-15T05:58:53;2.40;99.90
45983;DHT22;31711;47.158;7.346;2024-01-15T06:01:19;2.50;99.90
45983;DHT22;31711;47.158;7.346;2024-01-15T06:03:45;2.50;99.90
45983;DHT22;31711;47.158;7.346;2024-01-15T06:06:11;2.50;99.90
45983;DHT22;31711;47.158;7.346;2024-01-15T06:08:37;2.50;99.90
45983;DHT22;31711;47.158;7.346;2024-01-15T06:11:04;2.50;99.90
45983;DHT22;31711;47.158;7.346;2024-01-15T06:13:30;2.60;99.90
45983;DHT22;31711;47.158;7.346;2024-01-15T06:15:55;2.60;99.90
45983;DHT22;31711;47.158;7.346;2024-01-15T06:18:21;2.70;99.90
45983;DHT22;31711;47.158;7.346;2024-01-15T06:20:47;2.80;99.90
45983;DHT22;31711;47.158;7.346;2024-01-15T06:23:13;2.70;99.90
45983;DHT22;31711;47.158;7.346;2024-01-15T06:25:39;2.70;99.90
45983;DHT22;31711;47.158;7.346;2024-01-15T06:28:05;2.70;99.90
45983;DHT22;31711;47.158;7.346;2024-01-15T06:30:31;2.80;99.90
45983;DHT22;31711;47.158;7.346;2024-01-15T06:32:57;2.80;99.90
45983;DHT22;31711;47.158;7.346;2024-01-15T06:35:23;2.70;99.90
45983;DHT22;31711;47.158;7.346;2024-01-15T06:37:49;2.70;99.90
45983;DHT22;31711;47.158;7.346;2024-01-15T06:40:15;2.70;99.90
45983;DHT22;31711;47.158;7.346;2024-01-15T06:42:41;2.80;99.90
45983;DHT22;31711;47.158;7.346;2024-01-15T06:45:07;2.80;99.90
45983;DHT22;31711;47.158;7.346;2024-01-15T06:47:33;2.60;99.90
45983;DHT22;31711;47.158;7.346;2024-01-15T06:49:59;2.60;99.90
45983;DHT22;31711;47.158;7.346;2024-01-15T06:52:25;2.60;99.90
45983;DHT22;31711;47.158;7.346;2024-01-15T06:54:51;2.60;99.90
45983;DHT22;31711;47.158;7.346;2024-01-15T06:57:17;2.70;99.90
45983;DHT22;31711;47.158;7.346;2024-01-15T06:59:45;2.70;99.90
45983;DHT22;31711;47.158;7.346;2024-01-15T07:02:11;2.70;99.90
45983;DHT22;31711;47.158;7.346;2024-01-15T07:04:37;2.60;99.90
45983;DHT22;31711;47.158;7.346;2024-01-15T07:07:04;2.60;99.90
45983;DHT22;31711;47.158;7.346;2024-01-15T07:09:30;2.50;99.90
45983;DHT22;31711;47.158;7.346;2024-01-15T07:11:58;2.40;99.90
45983;DHT22;31711;47.158;7.346;2024-01-15T07:14:25;2.40;99.90
45983;DHT22;31711;47.158;7.346;2024-01-15T07:16:52;2.30;99.90
45983;DHT22;31711;47.158;7.346;2024-01-15T07:19:18;2.20;99.90
45983;DHT22;31711;47.158;7.346;2024-01-15T07:21:44;2.20;99.90
45983;DHT22;31711;47.158;7.346;2024-01-15T07:24:10;2.10;99.90
45983;DHT22;31711;47.158;7.346;2024-01-15T07:26:36;2.10;99.90
45983;DHT22;31711;47.158;7.346;2024-01-15T07:29:02;2.00;99.90
45983;DHT22;31711;47.158;7.346;2024-01-15T07:31:29;2.00;99.90
45983;DHT22;31711;47.158;7.346;2024-01-15T07:33:55;2.00;99.90
45983;DHT22;31711;47.158;7.346;2024-01-15T07:36:20;2.00;99.90
45983;DHT22;31711;47.158;7.346;2024-01-15T07:38:46;2.00;99.90
45983;DHT22;31711;47.158;7.346;2024-01-15T07:41:13;2.00;99.90
45983;DHT22;31711;47.158;7.346;2024-01-15T07:43:39;2.00;99.90
45983;DHT22;31711;47.158;7.346;2024-01-15T07:46:06;2.10;99.90
45983;DHT22;31711;47.158;7.346;2024-01-15T07:48:32;2.00;99.90
45983;DHT22;31711;47.158;7.346;2024-01-15T07:50:58;1.90;99.90
45983;DHT22;31711;47.158;7.346;2024-01-15T07:53:24;1.90;99.90
45983;DHT22;31711;47.158;7.346;2024-01-15T07:55:50;1.90;99.90
45983;DHT22;31711;47.158;7.346;2024-01-15T07:58:16;2.00;99.90
45983;DHT22;31711;47.158;7.346;2024-01-15T08:00:42;1.90;99.90
45983;DHT22;31711;47.158;7.346;2024-01-15T08:03:08;2.00;99.90
45983;DHT22;31711;47.158;7.346;2024-01-15T08:05:34;1.90;99.90
45983;DHT22;31711;47.158;7.346;2024-01-15T08:08:00;1.80;99.90
45983;DHT22;31711;47.158;7.346;2024-01-15T08:10:26;1.70;99.90
45983;DHT22;31711;47.158;7.346;2024-01-15T08:12:52;1.60;99.90
45983;DHT22;31711;47.158;7.346;2024-01-15T08:15:18;1.40;99.90
45983;DHT22;31711;47.158;7.346;2024-01-15T08:17:45;1.40;99.90
45983;DHT22;31711;47.158;7.346;2024-01-15T08:20:11;1.30;99.90
45983;DHT22;31711;47.158;7.346;2024-01-15T08:22:38;1.30;99.90
45983;DHT22;31711;47.158;7.346;2024-01-15T08:25:05;1.20;99.90
45983;DHT22;31711;47.158;7.346;2024-01-15T08:27:31;1.10;99.90
45983;DHT22;31711;47.158;7.346;2024-01-15T08:29:57;1.10;99.90
45983;DHT22;31711;47.158;7.346;2024-01-15T08:32:23;1.00;99.90
45983;DHT22;31711;47.158;7.346;2024-01-15T08:34:49;0.90;99.90
45983;DHT22;31711;47.158;7.346;2024-01-15T08:37:18;0.90;99.90
45983;DHT22;31711;47.158;7.346;2024-01-15T08:39:44;0.90;99.90
45983;DHT22;31711;47.158;7.346;2024-01-15T08:42:11;0.90;99.90
45983;DHT22;31711;47.158;7.346;2024-01-15T08:44:37;0.90;99.90
45983;DHT22;31711;47.158;7.346;2024-01-15T08:47:05;0.90;99.90
45983;DHT22;31711;47.158;7.346;2024-01-15T08:49:31;0.90;99.90
45983;DHT22;31711;47.158;7.346;2024-01-15T08:51:56;0.80;99.90
45983;DHT22;31711;47.158;7.346;2024-01-15T08:54:22;0.80;99.90
45983;DHT22;31711;47.158;7.346;2024-01-15T08:56:48;0.80;99.90
45983;DHT22;31711;47.158;7.346;2024-01-15T08:59:14;0.80;99.90
45983;DHT22;31711;47.158;7.346;2024-01-15T09:01:40;0.80;99.90
45983;DHT22;31711;47.158;7.346;2024-01-15T09:04:06;0.70;99.90
45983;DHT22;31711;47.158;7.346;2024-01-15T09:06:32;0.70;99.90
45983;DHT22;31711;47.158;7.346;2024-01-15T09:08:58;0.70;99.90
45983;DHT22;31711;47.158;7.346;2024-01-15T09:11:24;0.80;99.90
45983;DHT22;31711;47.158;7.346;2024-01-15T09:13:50;0.80;99.90
45983;DHT22;31711;47.158;7.346;2024-01-15T09:16:17;0.80;99.90
45983;DHT22;31711;47.158;7.346;2024-01-15T09:18:43;0.80;99.90
45983;DHT22;31711;47.158;7.346;2024-01-15T09:21:09;0.80;99.90
45983;DHT22;31711;47.158;7.346;2024-01-15T09:23:35;0.80;99.90
45983;DHT22;31711;47.158;7.346;2024-01-15T09:26:01;0.90;99.90
45983;DHT22;31711;47.158;7.346;2024-01-15T09:28:27;1.00;99.90
45983;DHT22;31711;47.158;7.346;2024-01-15T09:30:53;1.10;99.90
45983;DHT22;31711;47.158;7.346;2024-01-15T09:33:19;1.30;99.90
45983;DHT22;31711;47.158;7.346;2024-01-15T09:35:45;1.40;99.90
45983;DHT22;31711;47.158;7.346;2024-01-15T09:38:11;1.70;99.90
45983;DHT22;31711;47.158;7.346;2024-01-15T09:40:38;1.90;99.90
45983;DHT22;31711;47.158;7.346;2024-01-15T09:43:04;2.00;99.90
45983;DHT22;31711;47.158;7.346;2024-01-15T09:45:31;2.10;99.90
45983;DHT22;31711;47.158;7.346;2024-01-15T09:47:57;2.10;99.90
45983;DHT22;31711;47.158;7.346;2024-01-15T09:50:23;2.20;99.90
45983;DHT22;31711;47.158;7.346;2024-01-15T09:52:49;2.30;99.90
45983;DHT22;31711;47.158;7.346;2024-01-15T09:55:17;2.40;99.90
45983;DHT22;31711;47.158;7.346;2024-01-15T09:57:44;2.50;99.90
45983;DHT22;31711;47.158;7.346;2024-01-15T10:00:10;2.60;99.90
45983;DHT22;31711;47.158;7.346;2024-01-15T10:02:36;2.70;99.90
45983;DHT22;31711;47.158;7.346;2024-01-15T10:05:04;2.80;99.90
45983;DHT22;31711;47.158;7.346;2024-01-15T10:07:34;2.90;99.90
45983;DHT22;31711;47.158;7.346;2024-01-15T10:10:00;3.00;99.90
45983;DHT22;31711;47.158;7.346;2024-01-15T10:12:26;3.00;99.90
45983;DHT22;31711;47.158;7.346;2024-01-15T10:14:53;3.10;99.90
45983;DHT22;31711;47.158;7.346;2024-01-15T10:17:18;3.10;99.90
45983;DHT22;31711;47.158;7.346;2024-01-15T10:19:47;3.20;99.90
45983;DHT22;31711;47.158;7.346;2024-01-15T10:22:14;3.30;99.90
45983;DHT22;31711;47.158;7.346;2024-01-15T10:24:41;3.30;99.90
45983;DHT22;31711;47.158;7.346;2024-01-15T10:27:08;3.30;99.90
45983;DHT22;31711;47.158;7.346;2024-01-15T10:29:35;3.20;99.90
45983;DHT22;31711;47.158;7.346;2024-01-15T10:32:05;3.30;99.90
45983;DHT22;31711;47.158;7.346;2024-01-15T10:34:32;3.30;99.90
45983;DHT22;31711;47.158;7.346;2024-01-15T10:36:58;3.20;99.90
45983;DHT22;31711;47.158;7.346;2024-01-15T10:39:24;3.10;99.90
45983;DHT22;31711;47.158;7.346;2024-01-15T10:41:51;3.10;99.90
45983;DHT22;31711;47.158;7.346;2024-01-15T10:44:17;3.10;99.90
45983;DHT22;31711;47.158;7.346;2024-01-15T10:46:43;3.20;99.90
45983;DHT22;31711;47.158;7.346;2024-01-15T10:49:11;3.30;99.90
45983;DHT22;31711;47.158;7.346;2024-01-15T10:51:38;3.50;99.90
45983;DHT22;31711;47.158;7.346;2024-01-15T10:54:04;3.60;99.90
45983;DHT22;31711;47.158;7.346;2024-01-15T10:56:32;3.70;99.90
45983;DHT22;31711;47.158;7.346;2024-01-15T10:59:00;3.80;99.90
45983;DHT22;31711;47.158;7.346;2024-01-15T11:01:27;3.90;99.90
45983;DHT22;31711;47.158;7.346;2024-01-15T11:03:54;3.90;99.90
45983;DHT22;31711;47.158;7.346;2024-01-15T11:06:24;4.00;99.90
45983;DHT22;31711;47.158;7.346;2024-01-15T11:08:51;4.10;99.90
45983;DHT22;31711;47.158;7.346;2024-01-15T11:11:18;4.10;99.90
45983;DHT22;31711;47.158;7.346;2024-01-15T11:13:47;4.10;99.90
45983;DHT22;31711;47.158;7.346;2024-01-15T11:16:15;4.10;99.90
45983;DHT22;31711;47.158;7.346;2024-01-15T11:18:43;4.20;99.90
45983;DHT22;31711;47.158;7.346;2024-01-15T11:23:58;4.30;99.90
45983;DHT22;31711;47.158;7.346;2024-01-15T11:26:44;4.50;99.90
45983;DHT22;31711;47.158;7.346;2024-01-15T11:32:01;4.80;99.90
45983;DHT22;31711;47.158;7.346;2024-01-15T11:34:58;4.90;99.90
45983;DHT22;31711;47.158;7.346;2024-01-15T11:37:26;5.00;99.90
45983;DHT22;31711;47.158;7.346;2024-01-15T11:40:01;5.00;99.90
45983;DHT22;31711;47.158;7.346;2024-01-15T11:42:29;5.10;99.90
45983;DHT22;31711;47.158;7.346;2024-01-15T11:44:55;5.20;99.90
45983;DHT22;31711;47.158;7.346;2024-01-15T11:47:48;5.20;99.90
45983;DHT22;31711;47.158;7.346;2024-01-15T11:50:22;5.20;99.90
45983;DHT22;31711;47.158;7.346;2024-01-15T11:53:16;5.20;99.90
45983;DHT22;31711;47.158;7.346;2024-01-15T11:55:44;5.20;99.90
45983;DHT22;31711;47.158;7.346;2024-01-15T11:58:12;5.10;99.90
45983;DHT22;31711;47.158;7.346;2024-01-15T12:00:44;5.00;99.90
45983;DHT22;31711;47.158;7.346;2024-01-15T12:03:11;4.90;99.90
45983;DHT22;31711;47.158;7.346;2024-01-15T12:05:38;4.80;99.90
45983;DHT22;31711;47.158;7.346;2024-01-15T12:08:04;4.80;99.90
45983;DHT22;31711;47.158;7.346;2024-01-15T12:10:42;4.90;99.90
45983;DHT22;31711;47.158;7.346;2024-01-15T12:13:12;4.90;99.90
45983;DHT22;31711;47.158;7.346;2024-01-15T12:15:39;4.80;99.90
45983;DHT22;31711;47.158;7.346;2024-01-15T12:18:08;4.90;99.90
45983;DHT22;31711;47.158;7.346;2024-01-15T12:20:34;4.90;99.90
45983;DHT22;31711;47.158;7.346;2024-01-15T12:23:01;4.80;99.90
45983;DHT22;31711;47.158;7.346;2024-01-15T12:25:30;4.80;99.90
45983;DHT22;31711;47.158;7.346;2024-01-15T12:27:57;4.70;99.90
45983;DHT22;31711;47.158;7.346;2024-01-15T12:30:23;4.70;99.90
45983;DHT22;31711;47.158;7.346;2024-01-15T12:32:50;4.80;99.90
45983;DHT22;31711;47.158;7.346;2024-01-15T12:35:16;4.60;99.90
45983;DHT22;31711;47.158;7.346;2024-01-15T12:37:43;4.50;99.90
45983;DHT22;31711;47.158;7.346;2024-01-15T12:40:10;4.30;99.90
45983;DHT22;31711;47.158;7.346;2024-01-15T12:42:36;4.30;99.90
45983;DHT22;31711;47.158;7.346;2024-01-15T12:45:04;4.20;99.90
45983;DHT22;31711;47.158;7.346;2024-01-15T12:47:31;4.10;99.90
45983;DHT22;31711;47.158;7.346;2024-01-15T12:49:58;4.00;99.90
45983;DHT22;31711;47.158;7.346;2024-01-15T12:52:28;4.00;99.90
45983;DHT22;31711;47.158;7.346;2024-01-15T12:54:54;4.00;99.90
45983;DHT22;31711;47.158;7.346;2024-01-15T12:57:20;4.20;99.90
45983;DHT22;31711;47.158;7.346;2024-01-15T12:59:47;4.30;99.90
45983;DHT22;31711;47.158;7.346;2024-01-15T13:02:13;4.30;99.90
45983;DHT22;31711;47.158;7.346;2024-01-15T13:04:40;4.30;99.90
45983;DHT22;31711;47.158;7.346;2024-01-15T13:07:06;4.30;99.90
45983;DHT22;31711;47.158;7.346;2024-01-15T13:09:33;4.40;99.90
45983;DHT22;31711;47.158;7.346;2024-01-15T13:11:59;4.40;99.90
45983;DHT22;31711;47.158;7.346;2024-01-15T13:14:25;4.40;99.90
45983;DHT22;31711;47.158;7.346;2024-01-15T13:16:51;4.30;99.90
45983;DHT22;31711;47.158;7.346;2024-01-15T13:19:18;4.30;99.90
45983;DHT22;31711;47.158;7.346;2024-01-15T13:21:44;4.40;99.90
45983;DHT22;31711;47.158;7.346;2024-01-15T13:24:10;4.40;99.90
45983;DHT22;31711;47.158;7.346;2024-01-15T13:26:37;4.40;99.90
45983;DHT22;31711;47.158;7.346;2024-01-15T13:29:03;4.40;99.90
45983;DHT22;31711;47.158;7.346;2024-01-15T13:31:33;4.50;99.90
45983;DHT22;31711;47.158;7.346;2024-01-15T13:33:59;4.50;99.90
45983;DHT22;31711;47.158;7.346;2024-01-15T13:36:26;4.50;99.90
45983;DHT22;31711;47.158;7.346;2024-01-15T13:38:53;4.50;99.90
45983;DHT22;31711;47.158;7.346;2024-01-15T13:41:20;4.50;99.90
45983;DHT22;31711;47.158;7.346;2024-01-15T13:43:55;4.50;99.90
45983;DHT22;31711;47.158;7.346;2024-01-15T13:46:25;4.50;99.90
45983;DHT22;31711;47.158;7.346;2024-01-15T13:48:55;4.50;99.90
45983;DHT22;31711;47.158;7.346;2024-01-15T13:51:22;4.60;99.90
45983;DHT22;31711;47.158;7.346;2024-01-15T13:53:49;4.60;99.90
45983;DHT22;31711;47.158;7.346;2024-01-15T13:56:16;4.60;99.90
45983;DHT22;31711;47.158;7.346;2024-01-15T13:58:42;4.60;99.90
45983;DHT22;31711;47.158;7.346;2024-01-15T14:01:09;4.70;99.90
45983;DHT22;31711;47.158;7.346;2024-01-15T14:03:36;4.60;99.90
45983;DHT22;31711;47.158;7.346;2024-01-15T14:06:02;4.70;99.90
45983;DHT22;31711;47.158;7.346;2024-01-15T14:08:29;4.70;99.90
45983;DHT22;31711;47.158;7.346;2024-01-15T14:10:55;4.70;99.90
45983;DHT22;31711;47.158;7.346;2024-01-15T14:13:22;4.70;99.90
45983;DHT22;31711;47.158;7.346;2024-01-15T14:15:48;4.70;99.90
45983;DHT22;31711;47.158;7.346;2024-01-15T14:18:16;4.70;99.90
45983;DHT22;31711;47.158;7.346;2024-01-15T14:20:43;4.80;99.90
45983;DHT22;31711;47.158;7.346;2024-01-15T14:23:09;4.80;99.90
45983;DHT22;31711;47.158;7.346;2024-01-15T14:25:36;4.70;99.90
45983;DHT22;31711;47.158;7.346;2024-01-15T14:28:02;4.80;99.90
45983;DHT22;31711;47.158;7.346;2024-01-15T14:30:27;4.80;99.90
45983;DHT22;31711;47.158;7.346;2024-01-15T14:32:53;4.80;99.70
45983;DHT22;31711;47.158;7.346;2024-01-15T14:35:20;4.70;99.90
45983;DHT22;31711;47.158;7.346;2024-01-15T14:37:46;4.70;99.60
45983;DHT22;31711;47.158;7.346;2024-01-15T14:40:14;4.90;99.50
45983;DHT22;31711;47.158;7.346;2024-01-15T14:42:41;4.90;99.20
45983;DHT22;31711;47.158;7.346;2024-01-15T14:45:08;4.90;98.80
45983;DHT22;31711;47.158;7.346;2024-01-15T14:47:38;4.80;99.20
45983;DHT22;31711;47.158;7.346;2024-01-15T14:50:06;4.80;98.70
45983;DHT22;31711;47.158;7.346;2024-01-15T14:52:32;4.80;99.20
45983;DHT22;31711;47.158;7.346;2024-01-15T14:54:59;4.80;99.00
45983;DHT22;31711;47.158;7.346;2024-01-15T14:57:25;4.70;99.10
45983;DHT22;31711;47.158;7.346;2024-01-15T14:59:51;4.70;98.30
45983;DHT22;31711;47.158;7.346;2024-01-15T15:02:18;4.80;99.20
45983;DHT22;31711;47.158;7.346;2024-01-15T15:04:44;4.80;99.10
45983;DHT22;31711;47.158;7.346;2024-01-15T15:07:10;4.80;99.30
45983;DHT22;31711;47.158;7.346;2024-01-15T15:09:36;4.80;99.90
45983;DHT22;31711;47.158;7.346;2024-01-15T15:12:04;4.80;99.20
45983;DHT22;31711;47.158;7.346;2024-01-15T15:14:31;4.70;99.40
45983;DHT22;31711;47.158;7.346;2024-01-15T15:16:57;4.70;99.80
45983;DHT22;31711;47.158;7.346;2024-01-15T15:19:23;4.70;99.90
45983;DHT22;31711;47.158;7.346;2024-01-15T15:21:50;4.60;99.90
45983;DHT22;31711;47.158;7.346;2024-01-15T15:24:15;4.60;99.90
45983;DHT22;31711;47.158;7.346;2024-01-15T15:26:41;4.50;99.90
45983;DHT22;31711;47.158;7.346;2024-01-15T15:29:09;4.50;99.60
45983;DHT22;31711;47.158;7.346;2024-01-15T15:31:35;4.40;99.90
45983;DHT22;31711;47.158;7.346;2024-01-15T15:34:01;4.30;99.90
45983;DHT22;31711;47.158;7.346;2024-01-15T15:36:27;4.30;99.90
45983;DHT22;31711;47.158;7.346;2024-01-15T15:38:53;4.30;99.90
45983;DHT22;31711;47.158;7.346;2024-01-15T15:41:21;4.30;99.90
45983;DHT22;31711;47.158;7.346;2024-01-15T15:43:47;4.20;99.90
45983;DHT22;31711;47.158;7.346;2024-01-15T15:46:13;4.20;99.90